createdAt,value
2018-08-04T00:00:17.604Z,53.00
2018-08-04T00:03:08.582Z,52.51
2018-08-04T00:05:37.470Z,52.71
2018-08-04T00:08:06.366Z,53.50
2018-08-04T00:10:59.726Z,53.58
2018-08-04T00:13:28.622Z,53.36
2018-08-04T00:15:59.580Z,53.09
2018-08-04T00:18:45.680Z,53.42
2018-08-04T00:21:14.544Z,53.57
2018-08-04T00:23:43.468Z,53.73
2018-08-04T00:26:12.421Z,53.55
2018-08-04T00:28:41.331Z,53.62
2018-08-04T00:31:10.188Z,53.30
2018-08-04T00:33:39.041Z,52.98
2018-08-04T00:36:13.578Z,53.74
2018-08-04T00:38:42.460Z,53.10
2018-08-04T00:41:11.355Z,53.24
2018-08-04T00:43:40.331Z,53.59
2018-08-04T00:46:09.200Z,53.78
2018-08-04T00:48:38.046Z,53.96
2018-08-04T00:51:06.997Z,53.99
2018-08-04T00:53:35.972Z,54.19
2018-08-04T00:56:04.856Z,53.41
2018-08-04T00:58:33.720Z,53.69
2018-08-04T01:01:06.007Z,53.96
2018-08-04T01:03:35.032Z,54.20
2018-08-04T01:06:03.927Z,53.84
2018-08-04T01:08:40.011Z,54.14
2018-08-04T01:11:08.953Z,54.28
2018-08-04T01:13:37.846Z,54.46
2018-08-04T01:16:07.787Z,54.40
2018-08-04T01:18:36.646Z,53.71
2018-08-04T01:21:05.502Z,54.15
2018-08-04T01:23:34.387Z,54.18
2018-08-04T01:26:06.489Z,53.79
2018-08-04T01:28:35.426Z,53.93
2018-08-04T01:31:04.416Z,54.48
2018-08-04T01:33:33.420Z,54.09
2018-08-04T01:36:02.368Z,54.50
2018-08-04T01:38:42.793Z,54.10
2018-08-04T01:41:11.659Z,54.29
2018-08-04T01:43:41.571Z,54.25
2018-08-04T01:46:10.436Z,54.36
2018-08-04T01:51:34.956Z,54.11
2018-08-04T01:54:03.832Z,53.86
2018-08-04T01:56:32.834Z,54.24
2018-08-04T01:59:08.325Z,53.86
2018-08-04T02:01:37.289Z,54.46
2018-08-04T02:04:06.555Z,54.73
2018-08-04T02:06:39.035Z,54.40
2018-08-04T02:09:14.900Z,54.39
2018-08-04T02:11:47.356Z,54.24
2018-08-04T02:14:30.488Z,54.73
2018-08-04T02:17:03.970Z,54.97
2018-08-04T02:19:35.045Z,54.39
2018-08-04T02:24:57.705Z,54.92
2018-08-04T02:27:32.341Z,55.06
2018-08-04T02:30:06.957Z,55.39
2018-08-04T02:32:41.448Z,54.84
2018-08-04T02:35:24.175Z,54.83
2018-08-04T02:37:58.336Z,55.37
2018-08-04T02:40:27.188Z,55.12
2018-08-04T02:43:14.820Z,55.26
2018-08-04T02:46:01.842Z,55.71
2018-08-04T02:48:48.449Z,55.56
2018-08-04T02:51:24.950Z,55.67
2018-08-04T02:53:57.516Z,56.83
2018-08-04T02:56:26.488Z,56.37
2018-08-04T02:58:58.824Z,56.37
2018-08-04T03:01:29.911Z,56.62
2018-08-04T03:04:08.163Z,56.60
2018-08-04T03:06:37.046Z,56.80
2018-08-04T03:09:08.765Z,56.87
2018-08-04T03:11:42.164Z,57.38
2018-08-04T03:14:13.116Z,60.73
2018-08-04T03:16:48.078Z,56.18
2018-08-04T03:19:21.712Z,55.98
2018-08-04T03:21:51.127Z,59.29
2018-08-04T03:24:21.178Z,56.28
2018-08-04T03:26:57.983Z,60.44
2018-08-04T03:29:37.801Z,56.96
2018-08-04T03:32:07.480Z,56.45
2018-08-04T03:34:56.818Z,58.18
2018-08-04T03:37:26.188Z,56.70
2018-08-04T03:39:55.407Z,57.30
2018-08-04T03:42:24.793Z,57.11
2018-08-04T03:44:54.148Z,57.07
2018-08-04T03:47:23.445Z,56.95
2018-08-04T03:49:52.701Z,57.19
2018-08-04T03:52:21.993Z,57.49
2018-08-04T03:54:51.647Z,57.52
2018-08-04T03:57:20.637Z,57.07
2018-08-04T03:59:49.621Z,57.02
2018-08-04T04:02:18.659Z,56.93
2018-08-04T04:04:47.536Z,56.84
2018-08-04T04:07:16.410Z,56.58
2018-08-04T04:09:45.357Z,56.98
2018-08-04T04:12:14.238Z,56.04
2018-08-04T04:14:43.082Z,56.36
2018-08-04T04:17:22.060Z,56.74
2018-08-04T04:19:50.951Z,56.62
2018-08-04T04:22:19.844Z,56.92
2018-08-04T04:24:48.716Z,56.50
2018-08-04T04:27:17.600Z,56.71
2018-08-04T04:29:46.514Z,56.43
2018-08-04T04:32:15.433Z,56.34
2018-08-04T04:34:44.306Z,56.27
2018-08-04T04:37:16.745Z,55.72
2018-08-04T04:39:45.690Z,55.48
2018-08-04T04:42:14.707Z,55.75
2018-08-04T04:44:43.561Z,55.98
2018-08-04T04:47:12.441Z,56.02
2018-08-04T04:49:41.338Z,55.71
2018-08-04T04:52:10.224Z,56.08
2018-08-04T04:54:47.200Z,55.70
2018-08-04T04:57:16.068Z,55.63
2018-08-04T04:59:45.009Z,55.66
2018-08-04T05:02:13.868Z,56.50
2018-08-04T05:04:42.725Z,55.60
2018-08-04T05:07:11.739Z,55.30
2018-08-04T05:09:40.650Z,55.27
2018-08-04T05:12:20.901Z,55.75
2018-08-04T05:14:49.784Z,55.96
2018-08-04T05:17:25.780Z,55.82
2018-08-04T05:19:54.700Z,56.29
2018-08-04T05:22:23.567Z,55.83
2018-08-04T05:24:52.426Z,55.67
2018-08-04T05:27:25.686Z,55.90
2018-08-04T05:29:54.570Z,55.69
2018-08-04T05:32:23.454Z,55.63
2018-08-04T05:34:52.320Z,55.08
2018-08-04T05:37:31.118Z,55.45
2018-08-04T05:39:59.973Z,55.13
2018-08-04T05:42:28.847Z,55.16
2018-08-04T05:44:57.746Z,55.50
2018-08-04T05:47:26.606Z,55.30
2018-08-04T05:49:55.488Z,54.70
2018-08-04T05:52:24.356Z,54.84
2018-08-04T05:54:53.322Z,55.65
2018-08-04T05:57:22.228Z,55.98
2018-08-04T05:59:51.135Z,55.94
2018-08-04T06:02:19.981Z,55.86
2018-08-04T06:04:48.900Z,55.82
2018-08-04T06:07:17.749Z,55.97
2018-08-04T06:09:46.722Z,55.59
2018-08-04T06:12:15.640Z,55.32
2018-08-04T06:14:44.626Z,55.76
2018-08-04T06:17:13.477Z,55.65
2018-08-04T06:19:42.360Z,55.65
2018-08-04T06:22:11.292Z,55.63
2018-08-04T06:24:43.310Z,55.78
2018-08-04T06:27:12.185Z,55.26
2018-08-04T06:29:41.041Z,55.42
2018-08-04T06:32:10.175Z,55.57
2018-08-04T06:34:39.054Z,55.18
2018-08-04T06:37:07.898Z,55.54
2018-08-04T06:39:36.769Z,55.58
2018-08-04T06:42:11.280Z,55.43
2018-08-04T06:44:40.144Z,55.32
2018-08-04T06:47:09.038Z,55.56
2018-08-04T06:49:37.901Z,56.26
2018-08-04T06:52:06.773Z,56.25
2018-08-04T06:54:35.644Z,56.53
2018-08-04T06:57:04.524Z,56.16
2018-08-04T06:59:33.407Z,56.71
2018-08-04T07:02:02.274Z,56.25
2018-08-04T07:04:31.500Z,56.36
2018-08-04T07:07:00.430Z,55.80
2018-08-04T07:09:29.293Z,55.78
2018-08-04T07:11:58.227Z,55.62
2018-08-04T07:14:27.111Z,55.33
2018-08-04T07:16:56.083Z,54.72
2018-08-04T07:19:28.213Z,55.42
2018-08-04T07:21:57.114Z,55.52
2018-08-04T07:24:25.976Z,55.35
2018-08-04T07:26:58.756Z,54.85
2018-08-04T07:29:27.676Z,54.88
2018-08-04T07:31:56.567Z,54.53
2018-08-04T07:34:42.525Z,54.15
2018-08-04T07:37:11.396Z,53.78
2018-08-04T07:39:40.298Z,54.21
2018-08-04T07:42:21.113Z,54.03
2018-08-04T07:44:50.316Z,54.42
2018-08-04T07:47:19.187Z,54.07
2018-08-04T07:49:48.127Z,53.21
2018-08-04T07:52:16.981Z,53.41
2018-08-04T07:54:46.607Z,52.98
2018-08-04T07:57:15.466Z,53.17
2018-08-04T07:59:44.451Z,52.52
2018-08-04T08:02:13.666Z,52.67
2018-08-04T08:04:42.530Z,52.15
2018-08-04T08:07:11.480Z,52.28
2018-08-04T08:09:40.348Z,52.39
2018-08-04T08:12:09.324Z,51.54
2018-08-04T08:14:38.181Z,51.20
2018-08-04T08:17:07.315Z,51.21
2018-08-04T08:19:36.191Z,50.75
2018-08-04T08:22:05.088Z,49.37
2018-08-04T08:24:33.974Z,49.78
2018-08-04T08:27:16.688Z,49.50
2018-08-04T08:29:45.642Z,49.25
2018-08-04T08:32:14.515Z,49.44
2018-08-04T08:37:39.481Z,49.39
2018-08-04T08:40:09.010Z,49.04
2018-08-04T08:42:41.934Z,48.81
2018-08-04T08:45:11.161Z,47.85
2018-08-04T08:47:40.029Z,47.91
2018-08-04T08:50:11.069Z,48.63
2018-08-04T08:52:40.212Z,47.42
2018-08-04T08:55:09.743Z,46.71
2018-08-04T08:57:38.643Z,45.61
2018-08-04T09:00:09.349Z,46.07
2018-08-04T09:02:43.060Z,46.31
2018-08-04T09:05:11.944Z,45.49
2018-08-04T09:07:40.827Z,44.74
2018-08-04T09:10:11.893Z,44.31
2018-08-04T09:12:41.348Z,43.30
2018-08-04T09:15:10.577Z,43.02
2018-08-04T09:17:39.485Z,43.07
2018-08-04T09:20:13.578Z,42.44
2018-08-04T09:22:42.483Z,43.07
2018-08-04T09:25:11.361Z,42.89
2018-08-04T09:27:46.756Z,42.32
2018-08-04T09:30:15.621Z,42.46
2018-08-04T09:32:45.009Z,42.71
2018-08-04T09:35:14.891Z,42.42
2018-08-04T09:37:43.882Z,41.95
2018-08-04T09:40:19.780Z,41.89
2018-08-04T09:42:48.670Z,42.60
2018-08-04T09:45:17.553Z,42.31
2018-08-04T09:47:48.003Z,41.88
2018-08-04T09:50:16.966Z,41.69
2018-08-04T09:52:45.915Z,41.63
2018-08-04T09:55:14.815Z,42.25
2018-08-04T09:57:43.692Z,41.93
2018-08-04T10:00:18.685Z,41.37
2018-08-04T10:02:47.557Z,42.30
2018-08-04T10:05:16.467Z,42.07
2018-08-04T10:07:45.341Z,42.39
2018-08-04T10:10:14.234Z,41.74
2018-08-04T10:12:43.114Z,41.64
2018-08-04T10:15:12.232Z,41.76
2018-08-04T10:17:41.301Z,41.65
2018-08-04T10:20:11.536Z,41.22
2018-08-04T10:22:40.378Z,41.82
2018-08-04T10:25:09.501Z,40.83
2018-08-04T10:27:38.411Z,40.83
2018-08-04T10:30:18.709Z,39.96
2018-08-04T10:32:47.636Z,40.01
2018-08-04T10:35:17.584Z,40.64
2018-08-04T10:37:46.453Z,39.88
2018-08-04T10:40:15.316Z,39.11
2018-08-04T10:42:44.209Z,39.44
2018-08-04T10:45:13.093Z,39.32
2018-08-04T10:47:53.644Z,39.33
2018-08-04T10:50:22.520Z,39.92
2018-08-04T10:52:51.413Z,39.78
2018-08-04T10:55:36.655Z,39.59
2018-08-04T10:58:05.539Z,39.06
2018-08-04T11:00:34.894Z,38.58
2018-08-04T11:03:03.774Z,38.50
2018-08-04T11:05:41.184Z,38.40
2018-08-04T11:08:10.070Z,38.52
2018-08-04T11:10:39.958Z,38.17
2018-08-04T11:13:08.948Z,38.23
2018-08-04T11:15:37.812Z,37.68
2018-08-04T11:18:06.877Z,37.75
2018-08-04T11:20:35.675Z,37.52
2018-08-04T11:23:04.574Z,37.15
2018-08-04T11:25:33.474Z,37.79
2018-08-04T11:28:02.334Z,36.38
2018-08-04T11:30:31.247Z,35.94
2018-08-04T11:33:02.251Z,35.18
2018-08-04T11:35:31.122Z,36.41
2018-08-04T11:37:59.984Z,36.75
2018-08-04T11:40:28.886Z,35.76
2018-08-04T11:46:09.760Z,35.78
2018-08-04T11:48:38.628Z,35.79
2018-08-04T11:51:07.515Z,35.10
2018-08-04T11:53:36.417Z,35.65
2018-08-04T11:56:05.544Z,35.83
2018-08-04T11:58:34.427Z,36.13
2018-08-04T12:01:03.312Z,35.63
2018-08-04T12:03:32.207Z,35.54
2018-08-04T12:06:15.834Z,35.37
2018-08-04T12:08:44.706Z,35.92
2018-08-04T12:11:13.658Z,35.24
2018-08-04T12:13:42.440Z,34.87
2018-08-04T12:16:11.548Z,35.52
2018-08-04T12:18:40.450Z,35.33
2018-08-04T12:21:09.330Z,35.13
2018-08-04T12:23:40.244Z,35.73
2018-08-04T12:26:09.135Z,35.20
2018-08-04T12:28:38.017Z,35.01
2018-08-04T12:31:06.911Z,34.36
2018-08-04T12:33:37.998Z,34.93
2018-08-04T12:36:06.850Z,35.82
2018-08-04T12:38:35.714Z,36.07
2018-08-04T12:41:04.652Z,36.30
2018-08-04T12:43:33.845Z,35.99
2018-08-04T12:46:03.918Z,36.11
2018-08-04T12:48:33.452Z,36.01
2018-08-04T12:51:02.806Z,35.89
2018-08-04T12:56:32.443Z,35.98
2018-08-04T13:02:05.228Z,35.72
2018-08-04T13:04:44.024Z,36.02
2018-08-04T13:07:12.912Z,36.57
2018-08-04T13:09:48.890Z,36.79
2018-08-04T13:12:17.756Z,36.71
2018-08-04T13:14:46.626Z,36.95
2018-08-04T13:17:15.481Z,36.54
2018-08-04T13:19:44.421Z,36.03
2018-08-04T13:22:13.279Z,36.01
2018-08-04T13:24:42.173Z,36.13
2018-08-04T13:27:11.024Z,36.34
2018-08-04T13:29:39.929Z,35.98
2018-08-04T13:32:09.691Z,35.91
2018-08-04T13:34:42.372Z,36.44
2018-08-04T13:37:11.299Z,36.42
2018-08-04T13:39:40.160Z,35.69
2018-08-04T13:42:09.215Z,36.34
2018-08-04T13:44:38.312Z,36.18
2018-08-04T13:47:07.216Z,36.73
2018-08-04T13:49:36.092Z,36.11
2018-08-04T13:52:04.979Z,36.13
2018-08-04T13:54:33.860Z,36.20
2018-08-04T13:57:10.231Z,36.19
2018-08-04T13:59:39.122Z,36.27
2018-08-04T14:02:07.991Z,36.13
2018-08-04T14:04:36.989Z,35.85
2018-08-04T14:07:06.036Z,35.90
2018-08-04T14:09:34.908Z,36.30
2018-08-04T14:12:03.780Z,36.63
2018-08-04T14:14:32.632Z,35.87
2018-08-04T14:17:01.538Z,35.49
2018-08-04T14:19:30.401Z,35.87
2018-08-04T14:21:59.264Z,36.22
2018-08-04T14:24:28.159Z,36.26
2018-08-04T14:26:57.181Z,36.20
2018-08-04T14:29:26.042Z,36.46
2018-08-04T14:31:54.932Z,36.15
2018-08-04T14:34:23.834Z,35.78
2018-08-04T14:36:56.841Z,35.63
2018-08-04T14:39:25.706Z,35.85
2018-08-04T14:41:54.564Z,36.04
2018-08-04T14:44:31.114Z,36.34
2018-08-04T14:47:00.046Z,35.52
2018-08-04T14:49:28.947Z,36.34
2018-08-04T14:52:01.541Z,35.91
2018-08-04T14:54:30.434Z,35.84
2018-08-04T14:57:15.889Z,35.98
2018-08-04T14:59:44.813Z,35.71
2018-08-04T15:02:13.678Z,35.95
2018-08-04T15:04:42.618Z,36.10
2018-08-04T15:07:12.530Z,35.81
2018-08-04T15:09:41.395Z,35.90
2018-08-04T15:12:10.282Z,35.37
2018-08-04T15:14:39.137Z,36.12
2018-08-04T15:17:14.527Z,35.58
2018-08-04T15:19:43.448Z,35.83
2018-08-04T15:22:12.315Z,36.56
2018-08-04T15:24:41.191Z,36.88
2018-08-04T15:27:10.064Z,36.65
2018-08-04T15:29:38.955Z,36.47
2018-08-04T15:32:07.834Z,36.03
2018-08-04T15:34:36.689Z,36.29
2018-08-04T15:37:05.590Z,36.10
2018-08-04T15:39:34.524Z,36.36
2018-08-04T15:42:03.388Z,36.03
2018-08-04T15:44:34.812Z,36.24
2018-08-04T15:47:03.731Z,36.27
2018-08-04T15:49:32.565Z,36.26
2018-08-04T15:52:06.370Z,36.25
2018-08-04T15:54:35.236Z,36.53
2018-08-04T15:57:04.112Z,36.15
2018-08-04T15:59:32.958Z,35.66
2018-08-04T16:02:01.821Z,36.08
2018-08-04T16:04:32.821Z,35.74
2018-08-04T16:07:01.709Z,36.49
2018-08-04T16:09:30.576Z,36.58
2018-08-04T16:11:59.455Z,37.79
2018-08-04T16:14:29.459Z,37.92
2018-08-04T16:16:58.316Z,38.49
2018-08-04T16:19:27.174Z,38.03
2018-08-04T16:21:56.060Z,38.47
2018-08-04T16:24:24.954Z,38.62
2018-08-04T16:26:53.820Z,38.72
2018-08-04T16:29:22.700Z,38.64
2018-08-04T16:32:01.649Z,38.88
2018-08-04T16:34:30.584Z,39.07
2018-08-04T16:36:59.433Z,39.23
2018-08-04T16:39:29.152Z,39.63
2018-08-04T16:41:58.100Z,39.42
2018-08-04T16:44:26.940Z,40.05
2018-08-04T16:46:58.366Z,40.44
2018-08-04T16:49:27.239Z,40.53
2018-08-04T16:51:56.096Z,41.01
2018-08-04T16:54:28.904Z,41.04
2018-08-04T16:56:57.876Z,41.94
2018-08-04T16:59:26.800Z,42.17
2018-08-04T17:01:55.672Z,42.14
2018-08-04T17:04:24.549Z,42.95
2018-08-04T17:06:53.418Z,43.41
2018-08-04T17:09:27.164Z,43.72
2018-08-04T17:11:56.052Z,44.05
2018-08-04T17:14:24.930Z,44.30
2018-08-04T17:16:53.816Z,44.56
2018-08-04T17:19:38.920Z,44.67
2018-08-04T17:22:07.849Z,44.83
2018-08-04T17:24:36.692Z,45.20
2018-08-04T17:27:06.608Z,45.69
2018-08-04T17:29:35.488Z,46.13
2018-08-04T17:32:04.377Z,46.57
2018-08-04T17:34:33.270Z,47.25
2018-08-04T17:37:06.424Z,47.38
2018-08-04T17:39:35.330Z,47.67
2018-08-04T17:42:04.222Z,47.76
2018-08-04T17:44:33.222Z,48.32
2018-08-04T17:47:02.171Z,48.65
2018-08-04T17:49:31.035Z,48.61
2018-08-04T17:51:59.916Z,48.76
2018-08-04T17:54:28.836Z,49.45
2018-08-04T17:56:58.410Z,50.01
2018-08-04T17:59:27.287Z,50.27
2018-08-04T18:01:56.164Z,50.38
2018-08-04T18:07:23.131Z,50.77
2018-08-04T18:09:52.182Z,50.95
2018-08-04T18:12:23.142Z,50.83
2018-08-04T18:14:52.017Z,50.83
2018-08-04T18:17:20.879Z,50.76
2018-08-04T18:19:53.769Z,50.95
2018-08-04T18:22:22.643Z,50.60
2018-08-04T18:24:51.563Z,50.54
2018-08-04T18:27:20.448Z,51.19
2018-08-04T18:29:49.552Z,50.48
2018-08-04T18:32:18.433Z,50.55
2018-08-04T18:34:47.326Z,50.71
2018-08-04T18:37:16.184Z,50.78
2018-08-04T18:39:45.059Z,50.72
2018-08-04T18:42:13.950Z,51.35
2018-08-04T18:44:42.878Z,51.37
2018-08-04T18:47:11.753Z,51.55
2018-08-04T18:49:40.613Z,51.82
2018-08-04T18:52:09.510Z,51.75
2018-08-04T18:54:38.411Z,52.04
2018-08-04T18:57:07.311Z,52.11
2018-08-04T18:59:36.621Z,52.34
2018-08-04T19:02:05.504Z,53.19
2018-08-04T19:04:34.558Z,53.23
2018-08-04T19:07:03.413Z,53.44
2018-08-04T19:09:32.415Z,53.74
2018-08-04T19:12:01.276Z,54.15
2018-08-04T19:14:30.166Z,54.12
2018-08-04T19:17:04.596Z,54.66
2018-08-04T19:19:33.476Z,54.96
2018-08-04T19:22:02.354Z,55.17
2018-08-04T19:24:32.338Z,55.42
2018-08-04T19:27:01.193Z,55.26
2018-08-04T19:29:30.073Z,55.69
2018-08-04T19:31:59.015Z,56.32
2018-08-04T19:34:27.920Z,56.45
2018-08-04T19:36:56.883Z,56.42
2018-08-04T19:39:25.758Z,56.48
2018-08-04T19:45:11.241Z,57.38
2018-08-04T19:47:40.128Z,57.38
2018-08-04T19:53:04.844Z,57.93
2018-08-04T19:55:33.790Z,57.70
2018-08-04T19:58:02.613Z,58.01
2018-08-04T20:00:31.528Z,57.78
2018-08-04T20:03:00.404Z,57.48
2018-08-04T20:05:39.974Z,58.06
2018-08-04T20:08:08.830Z,57.99
2018-08-04T20:10:37.684Z,58.22
2018-08-04T20:13:06.643Z,58.18
2018-08-04T20:18:47.512Z,58.90
2018-08-04T20:21:16.442Z,59.18
2018-08-04T20:23:45.338Z,59.69
2018-08-04T20:26:14.200Z,59.43
2018-08-04T20:28:43.102Z,60.21
2018-08-04T20:31:14.017Z,61.39
2018-08-04T20:33:43.034Z,60.99
2018-08-04T20:36:12.355Z,61.30
2018-08-04T20:38:41.214Z,61.52
2018-08-04T20:41:10.101Z,61.34
2018-08-04T20:43:38.979Z,60.95
2018-08-04T20:46:07.848Z,60.61
2018-08-04T20:48:36.739Z,62.06
2018-08-04T20:51:05.625Z,62.23
2018-08-04T20:53:34.510Z,62.40
2018-08-04T20:56:03.369Z,62.58
2018-08-04T20:58:32.237Z,63.29
2018-08-04T21:01:12.596Z,62.81
2018-08-04T21:03:41.466Z,63.23
2018-08-04T21:06:11.399Z,63.00
2018-08-04T21:08:40.252Z,62.79
2018-08-04T21:11:09.147Z,63.03
2018-08-04T21:13:38.022Z,63.06
2018-08-04T21:16:07.004Z,63.54
2018-08-04T21:18:35.858Z,63.58
2018-08-04T21:21:10.923Z,64.12
2018-08-04T21:23:39.813Z,63.78
2018-08-04T21:26:08.692Z,64.11
2018-08-04T21:28:37.584Z,63.69
2018-08-04T21:31:06.464Z,64.57
2018-08-04T21:33:35.370Z,63.59
2018-08-04T21:36:04.236Z,64.12
2018-08-04T21:38:33.139Z,64.28
2018-08-04T21:41:02.038Z,64.66
2018-08-04T21:43:30.947Z,65.00
2018-08-04T21:45:59.936Z,64.84
2018-08-04T21:48:28.893Z,64.77
2018-08-04T21:50:57.784Z,64.96
2018-08-04T21:53:26.674Z,64.63
2018-08-04T21:55:55.608Z,64.78
2018-08-04T21:58:24.417Z,65.30
2018-08-04T22:00:58.738Z,66.12
2018-08-04T22:03:27.619Z,65.97
2018-08-04T22:05:56.502Z,65.47
2018-08-04T22:08:38.718Z,66.21
2018-08-04T22:11:07.643Z,66.33
2018-08-04T22:13:36.488Z,66.65
2018-08-04T22:16:05.507Z,67.07
2018-08-04T22:18:34.368Z,66.59
2018-08-04T22:21:03.296Z,66.71
2018-08-04T22:23:32.178Z,66.93
2018-08-04T22:26:09.119Z,66.73
2018-08-04T22:28:38.090Z,67.00
2018-08-04T22:31:06.968Z,67.44
2018-08-04T22:33:35.862Z,67.46
2018-08-04T22:36:04.809Z,67.87
2018-08-04T22:38:33.695Z,68.63
2018-08-04T22:41:02.603Z,68.04
2018-08-04T22:43:31.455Z,68.30
2018-08-04T22:46:06.336Z,68.31
2018-08-04T22:48:35.873Z,68.88
2018-08-04T22:51:05.009Z,69.60
2018-08-04T22:53:34.170Z,69.19
2018-08-04T22:56:03.022Z,69.46
2018-08-04T22:58:31.919Z,69.72
2018-08-04T23:01:00.807Z,69.16
2018-08-04T23:03:29.722Z,68.96
2018-08-04T23:05:58.728Z,69.58
2018-08-04T23:08:27.595Z,69.30
2018-08-04T23:10:56.682Z,71.00
2018-08-04T23:13:25.560Z,71.33
2018-08-04T23:15:54.446Z,71.54
2018-08-04T23:18:23.328Z,72.82
2018-08-04T23:20:52.184Z,72.64
2018-08-04T23:23:21.068Z,71.82
2018-08-04T23:25:49.917Z,71.67
2018-08-04T23:28:18.800Z,72.49
2018-08-04T23:30:47.668Z,72.61
2018-08-04T23:33:16.560Z,72.76
2018-08-04T23:35:52.789Z,73.96
2018-08-04T23:38:21.669Z,74.29
2018-08-04T23:40:50.541Z,74.44
2018-08-04T23:43:19.478Z,74.76
2018-08-04T23:45:48.371Z,74.01
2018-08-04T23:48:17.248Z,74.12
2018-08-04T23:50:46.154Z,75.36
2018-08-04T23:53:15.032Z,74.69
2018-08-04T23:55:43.928Z,74.95
2018-08-04T23:58:13.032Z,74.67
